sensor_id;sensor_type;location;lat;lon;timestamp;P1;durP1;ratioP1;P2;durP2;ratioP2
8986;SDS011;4529;51.360;12.474;2023-05-19T00:01:22;2.90;;;2.30;;
8986;SDS011;4529;51.360;12.474;2023-05-19T00:06:26;3.07;;;2.13;;
8986;SDS011;4529;51.360;12.474;2023-05-19T00:11:29;4.13;;;1.93;;
8986;SDS011;4529;51.360;12.474;2023-05-19T00:16:33;2.30;;;2.10;;
8986;SDS011;4529;51.360;12.474;2023-05-19T00:21:36;2.60;;;2.00;;
8986;SDS011;4529;51.360;12.474;2023-05-19T00:26:39;3.53;;;2.20;;
8986;SDS011;4529;51.360;12.474;2023-05-19T00:31:43;5.33;;;2.50;;
8986;SDS011;4529;51.360;12.474;2023-05-19T00:36:58;5.70;;;2.33;;
8986;SDS011;4529;51.360;12.474;2023-05-19T00:42:02;2.47;;;2.00;;
8986;SDS011;4529;51.360;12.474;2023-05-19T00:47:06;2.50;;;2.30;;
8986;SDS011;4529;51.360;12.474;2023-05-19T00:52:10;3.07;;;2.17;;
8986;SDS011;4529;51.360;12.474;2023-05-19T00:57:14;3.30;;;2.20;;
8986;SDS011;4529;51.360;12.474;2023-05-19T01:02:18;2.77;;;2.20;;
8986;SDS011;4529;51.360;12.474;2023-05-19T01:07:23;2.10;;;1.90;;
8986;SDS011;4529;51.360;12.474;2023-05-19T01:12:27;3.43;;;2.00;;
8986;SDS011;4529;51.360;12.474;2023-05-19T01:33:50;2.57;;;2.10;;
8986;SDS011;4529;51.360;12.474;2023-05-19T01:38:55;3.23;;;2.13;;
8986;SDS011;4529;51.360;12.474;2023-05-19T01:43:58;2.57;;;2.07;;
8986;SDS011;4529;51.360;12.474;2023-05-19T01:49:02;2.97;;;2.33;;
8986;SDS011;4529;51.360;12.474;2023-05-19T01:54:06;3.00;;;2.10;;
8986;SDS011;4529;51.360;12.474;2023-05-19T01:59:15;2.90;;;2.13;;
8986;SDS011;4529;51.360;12.474;2023-05-19T02:04:26;2.43;;;2.13;;
8986;SDS011;4529;51.360;12.474;2023-05-19T02:09:38;3.90;;;2.43;;
8986;SDS011;4529;51.360;12.474;2023-05-19T02:20:02;2.53;;;2.07;;
8986;SDS011;4529;51.360;12.474;2023-05-19T02:25:05;3.77;;;2.00;;
8986;SDS011;4529;51.360;12.474;2023-05-19T02:30:10;2.87;;;2.30;;
8986;SDS011;4529;51.360;12.474;2023-05-19T02:35:13;2.97;;;2.10;;
8986;SDS011;4529;51.360;12.474;2023-05-19T02:40:16;2.67;;;2.27;;
8986;SDS011;4529;51.360;12.474;2023-05-19T02:45:20;3.00;;;1.97;;
8986;SDS011;4529;51.360;12.474;2023-05-19T02:50:23;5.20;;;3.00;;
8986;SDS011;4529;51.360;12.474;2023-05-19T02:55:27;4.47;;;2.37;;
8986;SDS011;4529;51.360;12.474;2023-05-19T03:00:30;3.33;;;2.30;;
8986;SDS011;4529;51.360;12.474;2023-05-19T03:05:34;4.00;;;2.37;;
8986;SDS011;4529;51.360;12.474;2023-05-19T03:10:37;3.40;;;2.50;;
8986;SDS011;4529;51.360;12.474;2023-05-19T03:15:41;3.63;;;2.47;;
8986;SDS011;4529;51.360;12.474;2023-05-19T03:20:44;4.77;;;2.40;;
8986;SDS011;4529;51.360;12.474;2023-05-19T03:25:51;4.57;;;2.50;;
8986;SDS011;4529;51.360;12.474;2023-05-19T03:30:54;2.70;;;2.30;;
8986;SDS011;4529;51.360;12.474;2023-05-19T03:35:58;3.97;;;2.20;;
8986;SDS011;4529;51.360;12.474;2023-05-19T03:41:02;3.00;;;2.50;;
8986;SDS011;4529;51.360;12.474;2023-05-19T03:46:06;3.30;;;2.50;;
8986;SDS011;4529;51.360;12.474;2023-05-19T03:51:10;3.40;;;2.50;;
8986;SDS011;4529;51.360;12.474;2023-05-19T03:56:14;4.57;;;2.60;;
8986;SDS011;4529;51.360;12.474;2023-05-19T04:01:18;3.17;;;2.40;;
8986;SDS011;4529;51.360;12.474;2023-05-19T04:06:22;2.90;;;2.30;;
8986;SDS011;4529;51.360;12.474;2023-05-19T04:11:26;3.60;;;2.30;;
8986;SDS011;4529;51.360;12.474;2023-05-19T04:16:31;2.57;;;2.37;;
8986;SDS011;4529;51.360;12.474;2023-05-19T04:21:35;4.43;;;2.40;;
8986;SDS011;4529;51.360;12.474;2023-05-19T04:26:39;4.63;;;2.70;;
8986;SDS011;4529;51.360;12.474;2023-05-19T04:31:43;4.93;;;2.57;;
8986;SDS011;4529;51.360;12.474;2023-05-19T04:36:47;6.23;;;2.40;;
8986;SDS011;4529;51.360;12.474;2023-05-19T04:41:51;2.27;;;2.07;;
8986;SDS011;4529;51.360;12.474;2023-05-19T04:46:55;2.33;;;2.13;;
8986;SDS011;4529;51.360;12.474;2023-05-19T04:51:58;2.60;;;2.03;;
8986;SDS011;4529;51.360;12.474;2023-05-19T04:57:02;2.57;;;2.00;;
8986;SDS011;4529;51.360;12.474;2023-05-19T05:02:05;4.47;;;2.50;;
8986;SDS011;4529;51.360;12.474;2023-05-19T05:07:09;2.43;;;2.10;;
8986;SDS011;4529;51.360;12.474;2023-05-19T05:12:12;4.37;;;2.63;;
8986;SDS011;4529;51.360;12.474;2023-05-19T05:17:16;4.20;;;2.70;;
8986;SDS011;4529;51.360;12.474;2023-05-19T05:22:19;3.07;;;2.43;;
8986;SDS011;4529;51.360;12.474;2023-05-19T05:27:23;3.37;;;2.60;;
8986;SDS011;4529;51.360;12.474;2023-05-19T05:32:26;5.47;;;2.90;;
8986;SDS011;4529;51.360;12.474;2023-05-19T05:37:30;4.10;;;2.53;;
8986;SDS011;4529;51.360;12.474;2023-05-19T05:42:33;4.07;;;2.50;;
8986;SDS011;4529;51.360;12.474;2023-05-19T05:47:37;2.67;;;2.47;;
8986;SDS011;4529;51.360;12.474;2023-05-19T05:52:41;3.27;;;2.50;;
8986;SDS011;4529;51.360;12.474;2023-05-19T05:57:45;3.23;;;2.47;;
8986;SDS011;4529;51.360;12.474;2023-05-19T06:02:49;3.20;;;2.30;;
8986;SDS011;4529;51.360;12.474;2023-05-19T06:07:53;4.80;;;2.53;;
8986;SDS011;4529;51.360;12.474;2023-05-19T06:12:57;3.83;;;2.70;;
8986;SDS011;4529;51.360;12.474;2023-05-19T06:18:01;4.80;;;2.57;;
8986;SDS011;4529;51.360;12.474;2023-05-19T06:23:06;3.40;;;2.57;;
8986;SDS011;4529;51.360;12.474;2023-05-19T06:28:10;4.40;;;2.80;;
8986;SDS011;4529;51.360;12.474;2023-05-19T06:33:14;3.07;;;2.60;;
8986;SDS011;4529;51.360;12.474;2023-05-19T06:38:18;3.17;;;2.83;;
8986;SDS011;4529;51.360;12.474;2023-05-19T06:43:22;5.60;;;2.80;;
8986;SDS011;4529;51.360;12.474;2023-05-19T06:48:26;2.97;;;2.67;;
8986;SDS011;4529;51.360;12.474;2023-05-19T06:53:32;4.00;;;2.87;;
8986;SDS011;4529;51.360;12.474;2023-05-19T06:58:34;3.40;;;2.93;;
8986;SDS011;4529;51.360;12.474;2023-05-19T07:03:39;4.03;;;2.83;;
8986;SDS011;4529;51.360;12.474;2023-05-19T07:08:43;3.07;;;2.77;;
8986;SDS011;4529;51.360;12.474;2023-05-19T07:13:46;4.43;;;2.60;;
8986;SDS011;4529;51.360;12.474;2023-05-19T07:18:50;6.13;;;2.57;;
8986;SDS011;4529;51.360;12.474;2023-05-19T07:23:54;2.50;;;2.30;;
8986;SDS011;4529;51.360;12.474;2023-05-19T07:28:57;2.47;;;2.20;;
8986;SDS011;4529;51.360;12.474;2023-05-19T07:34:01;2.27;;;1.93;;
8986;SDS011;4529;51.360;12.474;2023-05-19T07:39:04;3.13;;;1.97;;
8986;SDS011;4529;51.360;12.474;2023-05-19T07:44:09;2.30;;;2.10;;
8986;SDS011;4529;51.360;12.474;2023-05-19T07:49:12;4.30;;;2.47;;
8986;SDS011;4529;51.360;12.474;2023-05-19T07:54:17;2.50;;;2.30;;
8986;SDS011;4529;51.360;12.474;2023-05-19T07:59:21;2.80;;;2.20;;
8986;SDS011;4529;51.360;12.474;2023-05-19T08:04:25;2.90;;;2.60;;
8986;SDS011;4529;51.360;12.474;2023-05-19T08:09:29;2.80;;;2.50;;
8986;SDS011;4529;51.360;12.474;2023-05-19T08:14:33;2.63;;;2.43;;
8986;SDS011;4529;51.360;12.474;2023-05-19T08:19:37;3.00;;;2.70;;
8986;SDS011;4529;51.360;12.474;2023-05-19T08:24:41;4.63;;;2.43;;
8986;SDS011;4529;51.360;12.474;2023-05-19T08:29:46;5.40;;;2.70;;
8986;SDS011;4529;51.360;12.474;2023-05-19T08:34:50;3.17;;;2.40;;
8986;SDS011;4529;51.360;12.474;2023-05-19T08:39:54;4.70;;;2.20;;
8986;SDS011;4529;51.360;12.474;2023-05-19T08:44:58;7.13;;;2.17;;
8986;SDS011;4529;51.360;12.474;2023-05-19T08:50:05;3.63;;;2.47;;
8986;SDS011;4529;51.360;12.474;2023-05-19T08:55:15;2.57;;;2.33;;
8986;SDS011;4529;51.360;12.474;2023-05-19T09:00:12;2.80;;;2.50;;
8986;SDS011;4529;51.360;12.474;2023-05-19T09:05:16;2.73;;;2.13;;
8986;SDS011;4529;51.360;12.474;2023-05-19T09:10:19;2.63;;;2.00;;
8986;SDS011;4529;51.360;12.474;2023-05-19T09:15:25;1.83;;;1.73;;
8986;SDS011;4529;51.360;12.474;2023-05-19T09:20:29;2.00;;;1.83;;
8986;SDS011;4529;51.360;12.474;2023-05-19T09:25:32;3.03;;;1.83;;
8986;SDS011;4529;51.360;12.474;2023-05-19T09:30:36;2.17;;;1.80;;
8986;SDS011;4529;51.360;12.474;2023-05-19T09:35:39;1.80;;;1.63;;
8986;SDS011;4529;51.360;12.474;2023-05-19T09:40:43;3.60;;;2.10;;
8986;SDS011;4529;51.360;12.474;2023-05-19T09:45:46;2.00;;;1.90;;
8986;SDS011;4529;51.360;12.474;2023-05-19T09:50:50;2.70;;;2.03;;
8986;SDS011;4529;51.360;12.474;2023-05-19T09:55:56;1.87;;;1.73;;
8986;SDS011;4529;51.360;12.474;2023-05-19T10:00:59;2.87;;;1.83;;
8986;SDS011;4529;51.360;12.474;2023-05-19T10:06:03;3.37;;;2.10;;
8986;SDS011;4529;51.360;12.474;2023-05-19T10:11:06;3.27;;;2.10;;
8986;SDS011;4529;51.360;12.474;2023-05-19T10:16:10;2.73;;;2.13;;
8986;SDS011;4529;51.360;12.474;2023-05-19T10:21:13;2.27;;;2.07;;
8986;SDS011;4529;51.360;12.474;2023-05-19T10:26:17;4.03;;;2.20;;
8986;SDS011;4529;51.360;12.474;2023-05-19T10:31:20;3.57;;;2.33;;
8986;SDS011;4529;51.360;12.474;2023-05-19T10:46:47;2.57;;;2.20;;
8986;SDS011;4529;51.360;12.474;2023-05-19T10:51:51;2.30;;;2.10;;
8986;SDS011;4529;51.360;12.474;2023-05-19T10:56:55;3.47;;;2.60;;
8986;SDS011;4529;51.360;12.474;2023-05-19T11:02:07;2.70;;;2.50;;
8986;SDS011;4529;51.360;12.474;2023-05-19T11:07:14;3.10;;;2.60;;
8986;SDS011;4529;51.360;12.474;2023-05-19T11:12:20;3.10;;;2.60;;
8986;SDS011;4529;51.360;12.474;2023-05-19T11:17:23;2.87;;;2.60;;
8986;SDS011;4529;51.360;12.474;2023-05-19T11:22:27;2.80;;;2.43;;
8986;SDS011;4529;51.360;12.474;2023-05-19T11:27:39;2.57;;;2.37;;
8986;SDS011;4529;51.360;12.474;2023-05-19T11:32:43;4.47;;;2.37;;
8986;SDS011;4529;51.360;12.474;2023-05-19T11:37:47;3.80;;;2.57;;
8986;SDS011;4529;51.360;12.474;2023-05-19T11:42:51;4.10;;;2.30;;
8986;SDS011;4529;51.360;12.474;2023-05-19T11:47:55;3.13;;;2.50;;
8986;SDS011;4529;51.360;12.474;2023-05-19T11:53:00;3.87;;;2.20;;
8986;SDS011;4529;51.360;12.474;2023-05-19T11:58:04;2.10;;;2.00;;
8986;SDS011;4529;51.360;12.474;2023-05-19T12:03:08;5.17;;;2.23;;
8986;SDS011;4529;51.360;12.474;2023-05-19T12:08:11;2.37;;;2.10;;
8986;SDS011;4529;51.360;12.474;2023-05-19T12:13:15;2.20;;;2.00;;
8986;SDS011;4529;51.360;12.474;2023-05-19T12:18:18;2.73;;;2.10;;
8986;SDS011;4529;51.360;12.474;2023-05-19T12:23:22;2.30;;;2.10;;
8986;SDS011;4529;51.360;12.474;2023-05-19T12:28:28;2.30;;;2.10;;
8986;SDS011;4529;51.360;12.474;2023-05-19T12:33:29;2.20;;;2.00;;
8986;SDS011;4529;51.360;12.474;2023-05-19T12:38:32;3.33;;;2.30;;
8986;SDS011;4529;51.360;12.474;2023-05-19T12:43:36;2.13;;;1.93;;
8986;SDS011;4529;51.360;12.474;2023-05-19T12:48:40;2.17;;;2.07;;
8986;SDS011;4529;51.360;12.474;2023-05-19T12:53:45;2.63;;;1.97;;
8986;SDS011;4529;51.360;12.474;2023-05-19T12:58:52;2.17;;;1.90;;
8986;SDS011;4529;51.360;12.474;2023-05-19T13:03:52;3.17;;;2.10;;
8986;SDS011;4529;51.360;12.474;2023-05-19T13:08:55;2.33;;;2.03;;
8986;SDS011;4529;51.360;12.474;2023-05-19T13:13:59;4.13;;;1.90;;
8986;SDS011;4529;51.360;12.474;2023-05-19T13:19:02;2.00;;;1.90;;
8986;SDS011;4529;51.360;12.474;2023-05-19T13:24:06;2.03;;;1.83;;
8986;SDS011;4529;51.360;12.474;2023-05-19T13:29:09;2.17;;;1.97;;
8986;SDS011;4529;51.360;12.474;2023-05-19T13:34:13;4.50;;;2.17;;
8986;SDS011;4529;51.360;12.474;2023-05-19T13:39:16;3.10;;;1.83;;
8986;SDS011;4529;51.360;12.474;2023-05-19T13:49:43;2.50;;;2.30;;
8986;SDS011;4529;51.360;12.474;2023-05-19T13:54:47;4.60;;;2.30;;
8986;SDS011;4529;51.360;12.474;2023-05-19T13:59:50;2.77;;;2.20;;
8986;SDS011;4529;51.360;12.474;2023-05-19T14:04:54;2.20;;;1.90;;
8986;SDS011;4529;51.360;12.474;2023-05-19T14:09:57;3.20;;;2.37;;
8986;SDS011;4529;51.360;12.474;2023-05-19T14:15:01;2.13;;;2.03;;
8986;SDS011;4529;51.360;12.474;2023-05-19T14:20:04;2.20;;;2.00;;
8986;SDS011;4529;51.360;12.474;2023-05-19T14:25:08;2.20;;;2.00;;
8986;SDS011;4529;51.360;12.474;2023-05-19T14:30:11;2.23;;;2.13;;
8986;SDS011;4529;51.360;12.474;2023-05-19T14:35:15;2.23;;;2.00;;
8986;SDS011;4529;51.360;12.474;2023-05-19T14:40:18;3.10;;;2.13;;
8986;SDS011;4529;51.360;12.474;2023-05-19T14:45:21;2.00;;;1.90;;
8986;SDS011;4529;51.360;12.474;2023-05-19T14:50:26;2.10;;;2.00;;
8986;SDS011;4529;51.360;12.474;2023-05-19T14:55:28;2.30;;;2.10;;
8986;SDS011;4529;51.360;12.474;2023-05-19T15:00:32;3.37;;;2.20;;
8986;SDS011;4529;51.360;12.474;2023-05-19T15:05:36;3.27;;;2.10;;
8986;SDS011;4529;51.360;12.474;2023-05-19T15:10:39;2.10;;;2.00;;
8986;SDS011;4529;51.360;12.474;2023-05-19T15:15:42;2.40;;;2.20;;
8986;SDS011;4529;51.360;12.474;2023-05-19T15:20:47;2.53;;;2.30;;
8986;SDS011;4529;51.360;12.474;2023-05-19T15:26:01;1.90;;;1.80;;
8986;SDS011;4529;51.360;12.474;2023-05-19T15:31:07;2.50;;;1.80;;
8986;SDS011;4529;51.360;12.474;2023-05-19T15:36:10;2.50;;;2.03;;
8986;SDS011;4529;51.360;12.474;2023-05-19T15:41:14;2.53;;;2.20;;
8986;SDS011;4529;51.360;12.474;2023-05-19T15:46:17;2.43;;;2.10;;
8986;SDS011;4529;51.360;12.474;2023-05-19T15:51:21;2.00;;;1.90;;
8986;SDS011;4529;51.360;12.474;2023-05-19T15:56:24;2.73;;;1.87;;
8986;SDS011;4529;51.360;12.474;2023-05-19T16:01:28;2.30;;;2.10;;
8986;SDS011;4529;51.360;12.474;2023-05-19T16:06:31;2.40;;;2.20;;
8986;SDS011;4529;51.360;12.474;2023-05-19T16:11:35;2.50;;;2.30;;
8986;SDS011;4529;51.360;12.474;2023-05-19T16:16:39;2.90;;;2.20;;
8986;SDS011;4529;51.360;12.474;2023-05-19T16:21:53;2.10;;;2.00;;
8986;SDS011;4529;51.360;12.474;2023-05-19T16:27:07;2.27;;;2.13;;
8986;SDS011;4529;51.360;12.474;2023-05-19T16:32:11;2.00;;;1.90;;
8986;SDS011;4529;51.360;12.474;2023-05-19T16:37:15;6.40;;;2.20;;
8986;SDS011;4529;51.360;12.474;2023-05-19T16:42:20;2.20;;;2.00;;
8986;SDS011;4529;51.360;12.474;2023-05-19T16:47:24;5.50;;;2.13;;
8986;SDS011;4529;51.360;12.474;2023-05-19T16:52:28;2.40;;;2.20;;
8986;SDS011;4529;51.360;12.474;2023-05-19T16:57:31;2.70;;;2.23;;
8986;SDS011;4529;51.360;12.474;2023-05-19T17:02:35;2.17;;;1.97;;
8986;SDS011;4529;51.360;12.474;2023-05-19T17:07:38;2.30;;;2.20;;
8986;SDS011;4529;51.360;12.474;2023-05-19T17:12:42;3.37;;;2.33;;
8986;SDS011;4529;51.360;12.474;2023-05-19T17:17:56;2.73;;;2.20;;
8986;SDS011;4529;51.360;12.474;2023-05-19T17:23:00;2.97;;;2.17;;
8986;SDS011;4529;51.360;12.474;2023-05-19T17:28:03;2.57;;;2.37;;
8986;SDS011;4529;51.360;12.474;2023-05-19T17:33:07;2.30;;;2.07;;
8986;SDS011;4529;51.360;12.474;2023-05-19T17:38:11;2.70;;;2.20;;
8986;SDS011;4529;51.360;12.474;2023-05-19T17:43:14;5.90;;;2.20;;
8986;SDS011;4529;51.360;12.474;2023-05-19T17:53:14;3.00;;;2.70;;
8986;SDS011;4529;51.360;12.474;2023-05-19T17:58:19;3.00;;;2.63;;
8986;SDS011;4529;51.360;12.474;2023-05-19T18:03:22;3.77;;;2.90;;
8986;SDS011;4529;51.360;12.474;2023-05-19T18:08:25;3.40;;;2.80;;
8986;SDS011;4529;51.360;12.474;2023-05-19T18:13:29;3.23;;;2.90;;
8986;SDS011;4529;51.360;12.474;2023-05-19T18:18:32;3.83;;;2.90;;
8986;SDS011;4529;51.360;12.474;2023-05-19T18:23:36;2.97;;;2.73;;
8986;SDS011;4529;51.360;12.474;2023-05-19T18:28:41;3.23;;;2.50;;
8986;SDS011;4529;51.360;12.474;2023-05-19T18:33:44;2.67;;;2.43;;
8986;SDS011;4529;51.360;12.474;2023-05-19T18:38:48;4.30;;;2.87;;
8986;SDS011;4529;51.360;12.474;2023-05-19T18:43:51;2.70;;;2.50;;
8986;SDS011;4529;51.360;12.474;2023-05-19T18:48:54;3.50;;;2.80;;
8986;SDS011;4529;51.360;12.474;2023-05-19T18:53:58;5.60;;;2.63;;
8986;SDS011;4529;51.360;12.474;2023-05-19T18:59:01;3.13;;;2.77;;
8986;SDS011;4529;51.360;12.474;2023-05-19T19:04:05;2.77;;;2.40;;
8986;SDS011;4529;51.360;12.474;2023-05-19T19:09:20;4.33;;;2.80;;
8986;SDS011;4529;51.360;12.474;2023-05-19T19:14:24;3.00;;;2.70;;
8986;SDS011;4529;51.360;12.474;2023-05-19T19:19:28;4.20;;;2.70;;
8986;SDS011;4529;51.360;12.474;2023-05-19T19:24:32;2.80;;;2.60;;
8986;SDS011;4529;51.360;12.474;2023-05-19T19:29:36;3.10;;;2.80;;
8986;SDS011;4529;51.360;12.474;2023-05-19T19:34:40;4.77;;;3.00;;
8986;SDS011;4529;51.360;12.474;2023-05-19T19:39:44;3.20;;;2.90;;
8986;SDS011;4529;51.360;12.474;2023-05-19T19:44:48;3.00;;;2.80;;
8986;SDS011;4529;51.360;12.474;2023-05-19T19:49:52;5.13;;;3.00;;
8986;SDS011;4529;51.360;12.474;2023-05-19T19:54:57;3.70;;;3.00;;
8986;SDS011;4529;51.360;12.474;2023-05-19T20:00:01;3.33;;;3.00;;
8986;SDS011;4529;51.360;12.474;2023-05-19T20:05:05;5.67;;;2.87;;
8986;SDS011;4529;51.360;12.474;2023-05-19T20:10:11;4.03;;;2.80;;
8986;SDS011;4529;51.360;12.474;2023-05-19T20:15:15;4.10;;;2.90;;
8986;SDS011;4529;51.360;12.474;2023-05-19T20:20:19;3.27;;;2.97;;
8986;SDS011;4529;51.360;12.474;2023-05-19T20:25:23;3.20;;;2.90;;
8986;SDS011;4529;51.360;12.474;2023-05-19T20:30:27;3.00;;;2.73;;
8986;SDS011;4529;51.360;12.474;2023-05-19T20:35:31;3.40;;;3.10;;
8986;SDS011;4529;51.360;12.474;2023-05-19T20:40:36;3.63;;;2.97;;
8986;SDS011;4529;51.360;12.474;2023-05-19T20:45:42;4.00;;;2.87;;
8986;SDS011;4529;51.360;12.474;2023-05-19T20:50:46;3.60;;;3.30;;
8986;SDS011;4529;51.360;12.474;2023-05-19T20:55:49;3.43;;;3.13;;
8986;SDS011;4529;51.360;12.474;2023-05-19T21:00:53;4.00;;;3.43;;
8986;SDS011;4529;51.360;12.474;2023-05-19T21:05:56;5.57;;;3.30;;
8986;SDS011;4529;51.360;12.474;2023-05-19T21:11:00;3.97;;;3.27;;
8986;SDS011;4529;51.360;12.474;2023-05-19T21:16:03;5.00;;;3.50;;
8986;SDS011;4529;51.360;12.474;2023-05-19T21:21:07;3.70;;;3.40;;
8986;SDS011;4529;51.360;12.474;2023-05-19T21:26:10;3.93;;;3.63;;
8986;SDS011;4529;51.360;12.474;2023-05-19T21:31:14;3.73;;;3.43;;
8986;SDS011;4529;51.360;12.474;2023-05-19T21:36:17;5.80;;;3.87;;
8986;SDS011;4529;51.360;12.474;2023-05-19T21:41:20;5.97;;;4.13;;
8986;SDS011;4529;51.360;12.474;2023-05-19T21:46:24;5.03;;;3.83;;
8986;SDS011;4529;51.360;12.474;2023-05-19T21:51:27;6.17;;;4.37;;
8986;SDS011;4529;51.360;12.474;2023-05-19T21:56:31;5.13;;;4.33;;
8986;SDS011;4529;51.360;12.474;2023-05-19T22:01:34;4.70;;;4.10;;
8986;SDS011;4529;51.360;12.474;2023-05-19T22:06:38;4.60;;;4.20;;
8986;SDS011;4529;51.360;12.474;2023-05-19T22:11:41;7.07;;;4.23;;
8986;SDS011;4529;51.360;12.474;2023-05-19T22:16:45;4.97;;;4.47;;
8986;SDS011;4529;51.360;12.474;2023-05-19T22:21:49;6.17;;;4.77;;
8986;SDS011;4529;51.360;12.474;2023-05-19T22:26:52;5.00;;;4.50;;
8986;SDS011;4529;51.360;12.474;2023-05-19T22:31:56;5.10;;;4.60;;
8986;SDS011;4529;51.360;12.474;2023-05-19T22:36:59;6.10;;;4.73;;
8986;SDS011;4529;51.360;12.474;2023-05-19T22:42:04;5.27;;;4.77;;
8986;SDS011;4529;51.360;12.474;2023-05-19T22:47:08;5.43;;;4.70;;
8986;SDS011;4529;51.360;12.474;2023-05-19T22:52:12;6.87;;;4.83;;
8986;SDS011;4529;51.360;12.474;2023-05-19T22:57:16;4.90;;;4.50;;
8986;SDS011;4529;51.360;12.474;2023-05-19T23:02:20;8.83;;;4.83;;
8986;SDS011;4529;51.360;12.474;2023-05-19T23:07:24;5.57;;;4.87;;
8986;SDS011;4529;51.360;12.474;2023-05-19T23:12:28;5.53;;;4.60;;
8986;SDS011;4529;51.360;12.474;2023-05-19T23:17:32;5.93;;;4.70;;
8986;SDS011;4529;51.360;12.474;2023-05-19T23:22:37;5.20;;;4.70;;
8986;SDS011;4529;51.360;12.474;2023-05-19T23:27:41;8.17;;;5.20;;
8986;SDS011;4529;51.360;12.474;2023-05-19T23:32:45;5.23;;;4.73;;
8986;SDS011;4529;51.360;12.474;2023-05-19T23:37:49;5.90;;;4.63;;
8986;SDS011;4529;51.360;12.474;2023-05-19T23:42:53;5.23;;;4.73;;
8986;SDS011;4529;51.360;12.474;2023-05-19T23:47:57;5.50;;;5.00;;
8986;SDS011;4529;51.360;12.474;2023-05-19T23:53:01;6.57;;;5.07;;
8986;SDS011;4529;51.360;12.474;2023-05-19T23:58:06;5.50;;;5.00;;
